createdAt,value
2023-04-12T00:00:55.322Z,0.00
2023-04-12T00:01:55.316Z,0.00
2023-04-12T00:02:55.311Z,0.00
2023-04-12T00:03:55.514Z,0.00
2023-04-12T00:04:55.631Z,0.00
2023-04-12T00:05:55.416Z,0.00
2023-04-12T00:06:55.240Z,0.00
2023-04-12T00:07:55.203Z,0.00
2023-04-12T00:08:55.184Z,0.00
2023-04-12T00:09:56.148Z,0.00
2023-04-12T00:10:55.324Z,0.00
2023-04-12T00:11:55.121Z,0.00
2023-04-12T00:12:55.162Z,0.00
2023-04-12T00:13:55.296Z,0.00
2023-04-12T00:14:55.138Z,0.00
2023-04-12T00:15:55.125Z,0.00
2023-04-12T00:16:55.206Z,0.00
2023-04-12T00:17:55.093Z,0.00
2023-04-12T00:18:55.051Z,0.00
2023-04-12T00:19:55.045Z,0.00
2023-04-12T00:20:55.064Z,0.00
2023-04-12T00:21:55.019Z,0.00
2023-04-12T00:22:55.032Z,0.00
2023-04-12T00:23:55.312Z,0.00
2023-04-12T00:24:55.003Z,0.00
2023-04-12T00:25:54.935Z,0.00
2023-04-12T00:26:55.008Z,0.00
2023-04-12T00:27:54.938Z,0.00
2023-04-12T00:28:54.962Z,0.00
2023-04-12T00:29:54.903Z,0.00
2023-04-12T00:30:54.952Z,0.00
2023-04-12T00:31:54.877Z,0.00
2023-04-12T00:32:54.940Z,0.00
2023-04-12T00:33:55.107Z,0.00
2023-04-12T00:34:54.984Z,0.00
2023-04-12T00:35:54.941Z,0.00
2023-04-12T00:36:54.819Z,0.00
2023-04-12T00:37:54.816Z,0.00
2023-04-12T00:38:54.820Z,0.00
2023-04-12T00:39:54.783Z,0.00
2023-04-12T00:40:54.794Z,0.00
2023-04-12T00:41:54.773Z,0.00
2023-04-12T00:42:54.741Z,0.00
2023-04-12T00:43:55.139Z,0.00
2023-04-12T00:44:54.762Z,0.00
2023-04-12T00:45:54.664Z,0.00
2023-04-12T00:46:54.911Z,0.00
2023-04-12T00:47:54.711Z,0.00
2023-04-12T00:48:54.654Z,0.00
2023-04-12T00:49:54.655Z,0.00
2023-04-12T00:50:54.631Z,0.00
2023-04-12T00:51:54.586Z,0.00
2023-04-12T00:52:54.800Z,0.00
2023-04-12T00:53:54.722Z,0.00
2023-04-12T00:54:54.582Z,0.00
2023-04-12T00:55:54.550Z,0.00
2023-04-12T00:56:54.580Z,0.00
2023-04-12T00:57:54.548Z,0.00
2023-04-12T00:58:54.590Z,0.00
2023-04-12T00:59:54.533Z,0.00
2023-04-12T01:00:54.564Z,0.00
2023-04-12T01:01:54.544Z,0.00
2023-04-12T01:02:54.589Z,0.00
2023-04-12T01:03:54.671Z,0.00
2023-04-12T01:04:54.584Z,0.00
2023-04-12T01:05:54.403Z,0.00
2023-04-12T01:06:54.443Z,0.00
2023-04-12T01:07:54.467Z,0.00
2023-04-12T01:08:54.416Z,0.00
2023-04-12T01:09:54.389Z,0.00
2023-04-12T01:10:54.403Z,0.00
2023-04-12T01:11:55.309Z,7.00
2023-04-12T01:12:54.360Z,0.00
2023-04-12T01:13:54.396Z,0.00
2023-04-12T01:14:54.352Z,0.00
2023-04-12T01:15:54.349Z,0.00
2023-04-12T01:16:54.319Z,0.00
2023-04-12T01:17:54.302Z,0.00
2023-04-12T01:18:54.254Z,0.00
2023-04-12T01:19:54.232Z,0.00
2023-04-12T01:20:54.262Z,0.00
2023-04-12T01:21:54.199Z,0.00
2023-04-12T01:22:54.331Z,0.00
2023-04-12T01:23:54.214Z,0.00
2023-04-12T01:24:54.179Z,0.00
2023-04-12T01:25:54.139Z,0.00
2023-04-12T01:26:54.199Z,0.00
2023-04-12T01:27:54.132Z,0.00
2023-04-12T01:28:58.239Z,0.00
2023-04-12T01:29:54.101Z,0.00
2023-04-12T01:30:54.088Z,0.00
2023-04-12T01:31:54.108Z,0.00
2023-04-12T01:32:54.145Z,0.00
2023-04-12T01:33:54.016Z,0.00
2023-04-12T01:34:54.218Z,0.00
2023-04-12T01:35:54.067Z,0.00
2023-04-12T01:36:54.006Z,0.00
2023-04-12T01:37:54.018Z,0.00
2023-04-12T01:38:53.991Z,0.00
2023-04-12T01:39:53.949Z,0.00
2023-04-12T01:40:54.108Z,0.00
2023-04-12T01:41:53.952Z,0.00
2023-04-12T01:42:53.939Z,0.00
2023-04-12T01:43:53.935Z,0.00
2023-04-12T01:44:53.940Z,0.00
2023-04-12T01:45:53.941Z,0.00
2023-04-12T01:46:53.975Z,0.00
2023-04-12T01:47:53.890Z,0.00
2023-04-12T01:48:53.851Z,0.00
2023-04-12T01:49:53.855Z,0.00
2023-04-12T01:50:53.865Z,0.00
2023-04-12T01:51:53.812Z,0.00
2023-04-12T01:52:53.873Z,0.00
2023-04-12T01:53:53.826Z,0.00
2023-04-12T01:54:53.807Z,0.00
2023-04-12T01:55:53.763Z,0.00
2023-04-12T01:56:53.776Z,0.00
2023-04-12T01:57:53.724Z,0.00
2023-04-12T01:58:53.813Z,0.00
2023-04-12T01:59:53.737Z,0.00
2023-04-12T02:00:53.705Z,0.00
2023-04-12T02:01:53.742Z,0.00
2023-04-12T02:02:53.920Z,0.00
2023-04-12T02:03:53.770Z,0.00
2023-04-12T02:04:53.714Z,0.00
2023-04-12T02:05:53.622Z,0.00
2023-04-12T02:06:53.669Z,0.00
2023-04-12T02:07:53.607Z,0.00
2023-04-12T02:08:53.590Z,0.00
2023-04-12T02:09:53.583Z,0.00
2023-04-12T02:10:53.606Z,0.00
2023-04-12T02:11:53.528Z,0.00
2023-04-12T02:12:53.566Z,0.00
2023-04-12T02:13:53.567Z,0.00
2023-04-12T02:14:53.489Z,0.00
2023-04-12T02:15:54.198Z,0.00
2023-04-12T02:16:53.657Z,0.00
2023-04-12T02:17:53.535Z,0.00
2023-04-12T02:18:53.460Z,0.00
2023-04-12T02:19:53.537Z,0.00
2023-04-12T02:20:53.401Z,0.00
2023-04-12T02:21:53.448Z,0.00
2023-04-12T02:22:54.148Z,0.00
2023-04-12T02:23:53.398Z,0.00
2023-04-12T02:24:53.386Z,0.00
2023-04-12T02:25:53.395Z,0.00
2023-04-12T02:26:53.358Z,0.00
2023-04-12T02:27:53.375Z,0.00
2023-04-12T02:28:53.425Z,0.00
2023-04-12T02:29:53.327Z,0.00
2023-04-12T02:30:53.342Z,0.00
2023-04-12T02:31:53.344Z,0.00
2023-04-12T02:32:53.313Z,0.00
2023-04-12T02:33:53.291Z,0.00
2023-04-12T02:34:53.338Z,0.00
2023-04-12T02:35:53.311Z,0.00
2023-04-12T02:36:53.225Z,0.00
2023-04-12T02:37:53.217Z,0.00
2023-04-12T02:38:53.231Z,0.00
2023-04-12T02:39:53.218Z,0.00
2023-04-12T02:40:53.181Z,0.00
2023-04-12T02:41:53.204Z,0.00
2023-04-12T02:42:53.124Z,0.00
2023-04-12T02:43:53.152Z,0.00
2023-04-12T02:44:53.117Z,0.00
2023-04-12T02:45:53.191Z,0.00
2023-04-12T02:46:53.106Z,0.00
2023-04-12T02:47:53.130Z,0.00
2023-04-12T02:48:53.100Z,0.00
2023-04-12T02:49:53.052Z,0.00
2023-04-12T02:50:53.049Z,0.00
2023-04-12T02:51:53.056Z,0.00
2023-04-12T02:52:53.120Z,0.00
2023-04-12T02:53:53.024Z,0.00
2023-04-12T02:54:52.961Z,0.00
2023-04-12T02:55:53.007Z,7.00
2023-04-12T02:56:52.962Z,0.00
2023-04-12T02:57:52.958Z,0.00
2023-04-12T02:58:52.988Z,0.00
2023-04-12T02:59:52.945Z,0.00
2023-04-12T03:00:52.872Z,0.00
2023-04-12T03:01:53.124Z,0.00
2023-04-12T03:02:53.248Z,0.00
2023-04-12T03:03:52.991Z,0.00
2023-04-12T03:04:52.894Z,0.00
2023-04-12T03:05:52.884Z,0.00
2023-04-12T03:06:52.813Z,0.00
2023-04-12T03:07:52.837Z,0.00
2023-04-12T03:08:52.812Z,0.00
2023-04-12T03:09:52.791Z,0.00
2023-04-12T03:10:52.839Z,0.00
2023-04-12T03:11:52.798Z,0.00
2023-04-12T03:12:52.734Z,0.00
2023-04-12T03:13:52.768Z,0.00
2023-04-12T03:14:52.736Z,0.00
2023-04-12T03:15:52.925Z,0.00
2023-04-12T03:16:52.739Z,0.00
2023-04-12T03:17:52.790Z,0.00
2023-04-12T03:18:52.676Z,0.00
2023-04-12T03:19:52.706Z,0.00
2023-04-12T03:20:52.668Z,0.00
2023-04-12T03:21:52.693Z,0.00
2023-04-12T03:22:52.639Z,0.00
2023-04-12T03:23:52.640Z,0.00
2023-04-12T03:24:52.599Z,0.00
2023-04-12T03:25:52.590Z,0.00
2023-04-12T03:26:52.561Z,0.00
2023-04-12T03:27:52.594Z,0.00
2023-04-12T03:28:52.646Z,0.00
2023-04-12T03:29:52.569Z,0.00
2023-04-12T03:30:52.600Z,0.00
2023-04-12T03:31:52.508Z,0.00
2023-04-12T03:32:52.504Z,0.00
2023-04-12T03:33:52.509Z,0.00
2023-04-12T03:34:52.579Z,0.00
2023-04-12T03:35:52.465Z,0.00
2023-04-12T03:36:52.508Z,0.00
2023-04-12T03:37:52.424Z,0.00
2023-04-12T03:38:52.424Z,0.00
2023-04-12T03:39:52.429Z,0.00
2023-04-12T03:40:52.403Z,0.00
2023-04-12T03:41:52.415Z,0.00
2023-04-12T03:42:52.340Z,0.00
2023-04-12T03:43:52.356Z,0.00
2023-04-12T03:44:52.355Z,0.00
2023-04-12T03:45:52.328Z,0.00
2023-04-12T03:46:52.560Z,0.00
2023-04-12T03:47:52.376Z,0.00
2023-04-12T03:48:52.265Z,0.00
2023-04-12T03:50:09.850Z,0.00
2023-04-12T03:50:53.288Z,0.00
2023-04-12T03:51:52.277Z,0.00
2023-04-12T03:52:52.332Z,0.00
2023-04-12T03:53:52.248Z,0.00
2023-04-12T03:54:52.194Z,0.00
2023-04-12T03:55:52.204Z,0.00
2023-04-12T03:56:52.182Z,0.00
2023-04-12T03:57:52.162Z,0.00
2023-04-12T03:58:52.194Z,0.00
2023-04-12T03:59:52.174Z,1.00
2023-04-12T04:00:52.103Z,1.00
2023-04-12T04:01:52.195Z,1.00
2023-04-12T04:02:52.156Z,1.00
2023-04-12T04:03:52.232Z,0.00
2023-04-12T04:04:52.118Z,2.00
2023-04-12T04:05:52.092Z,2.00
2023-04-12T04:06:52.025Z,4.00
2023-04-12T04:07:52.046Z,0.00
2023-04-12T04:08:52.023Z,4.00
2023-04-12T04:09:52.010Z,2.00
2023-04-12T04:10:52.046Z,6.00
2023-04-12T04:11:52.011Z,5.00
2023-04-12T04:12:51.957Z,3.00
2023-04-12T04:13:52.071Z,15.00
2023-04-12T04:14:51.927Z,13.00
2023-04-12T04:15:51.970Z,16.00
2023-04-12T04:16:51.979Z,18.00
2023-04-12T04:17:51.951Z,18.00
2023-04-12T04:18:52.607Z,25.00
2023-04-12T04:19:51.911Z,25.00
2023-04-12T04:20:51.869Z,28.00
2023-04-12T04:21:51.889Z,43.00
2023-04-12T04:22:52.896Z,37.00
2023-04-12T04:23:51.847Z,37.00
2023-04-12T04:24:52.552Z,44.00
2023-04-12T04:25:51.798Z,46.00
2023-04-12T04:26:51.795Z,44.00
2023-04-12T04:27:51.815Z,57.00
2023-04-12T04:28:51.824Z,62.00
2023-04-12T04:29:51.789Z,71.00
2023-04-12T04:30:51.710Z,78.00
2023-04-12T04:31:51.737Z,91.00
2023-04-12T04:32:51.745Z,100.00
2023-04-12T04:33:51.695Z,118.00
2023-04-12T04:34:51.732Z,134.00
2023-04-12T04:35:51.743Z,139.00
2023-04-12T04:36:51.636Z,146.00
2023-04-12T04:37:51.666Z,170.00
2023-04-12T04:38:51.641Z,191.00
2023-04-12T04:39:51.694Z,215.00
2023-04-12T04:40:51.611Z,245.00
2023-04-12T04:41:51.635Z,286.00
2023-04-12T04:42:51.556Z,333.00
2023-04-12T04:43:51.586Z,370.00
2023-04-12T04:44:51.564Z,411.00
2023-04-12T04:45:51.613Z,456.00
2023-04-12T04:46:51.625Z,510.00
2023-04-12T04:47:51.571Z,560.00
2023-04-12T04:48:51.469Z,617.00
2023-04-12T04:49:51.539Z,670.00
2023-04-12T04:50:51.455Z,708.00
2023-04-12T04:51:51.464Z,776.00
2023-04-12T04:52:51.601Z,831.00
2023-04-12T04:53:51.478Z,871.00
2023-04-12T04:54:51.396Z,927.00
2023-04-12T04:55:51.437Z,981.00
2023-04-12T04:56:51.449Z,1049.00
2023-04-12T04:57:51.387Z,1095.00
2023-04-12T04:58:51.506Z,1130.00
2023-04-12T04:59:51.395Z,1151.00
2023-04-12T05:00:51.347Z,1198.00
2023-04-12T05:01:51.459Z,1251.00
2023-04-12T05:02:52.184Z,1339.00
2023-04-12T05:03:51.384Z,1448.00
2023-04-12T05:04:51.346Z,1529.00
2023-04-12T05:05:51.307Z,1586.00
2023-04-12T05:06:51.356Z,1612.00
2023-04-12T05:07:51.288Z,1633.00
2023-04-12T05:08:51.203Z,1655.00
2023-04-12T05:09:51.253Z,1655.00
2023-04-12T05:10:51.256Z,1643.00
2023-04-12T05:11:51.241Z,1599.00
2023-04-12T05:12:51.193Z,1508.00
2023-04-12T05:13:51.207Z,1421.00
2023-04-12T05:14:51.834Z,1345.00
2023-04-12T05:15:51.155Z,1326.00
2023-04-12T05:16:51.322Z,1347.00
2023-04-12T05:17:51.137Z,1389.00
2023-04-12T05:18:51.120Z,1416.00
2023-04-12T05:19:51.153Z,1483.00
2023-04-12T05:20:51.060Z,1569.00
2023-04-12T05:21:51.087Z,1685.00
2023-04-12T05:22:51.100Z,1775.00
2023-04-12T05:23:51.043Z,1826.00
2023-04-12T05:24:51.031Z,1848.00
2023-04-12T05:25:51.045Z,1852.00
2023-04-12T05:26:51.000Z,1818.00
2023-04-12T05:27:52.192Z,1749.00
2023-04-12T05:28:50.999Z,1716.00
2023-04-12T05:29:50.995Z,1688.00
2023-04-12T05:30:50.977Z,1677.00
2023-04-12T05:31:50.965Z,1648.00
2023-04-12T05:32:50.952Z,1641.00
2023-04-12T05:33:50.915Z,1621.00
2023-04-12T05:34:50.940Z,1564.00
2023-04-12T05:35:50.928Z,1552.00
2023-04-12T05:36:50.841Z,1600.00
2023-04-12T05:37:50.893Z,1664.00
2023-04-12T05:38:50.843Z,1666.00
2023-04-12T05:39:50.842Z,1619.00
2023-04-12T05:40:50.870Z,1560.00
2023-04-12T05:41:50.825Z,1470.00
2023-04-12T05:42:50.774Z,1471.00
2023-04-12T05:43:50.768Z,1698.00
2023-04-12T05:44:50.800Z,1958.00
2023-04-12T05:45:50.788Z,2049.00
2023-04-12T05:46:50.775Z,2066.00
2023-04-12T05:47:50.821Z,2030.00
2023-04-12T05:48:50.688Z,2019.00
2023-04-12T05:49:50.719Z,2060.00
2023-04-12T05:50:50.685Z,2030.00
2023-04-12T05:51:50.688Z,2042.00
2023-04-12T05:52:50.692Z,2044.00
2023-04-12T05:53:50.667Z,1950.00
2023-04-12T05:54:50.637Z,1836.00
2023-04-12T05:55:51.341Z,1801.00
2023-04-12T05:56:50.599Z,1819.00
2023-04-12T05:57:50.592Z,1873.00
2023-04-12T05:58:50.595Z,1880.00
2023-04-12T05:59:51.353Z,1904.00
2023-04-12T06:00:50.526Z,1939.00
2023-04-12T06:01:50.586Z,1958.00
2023-04-12T06:02:50.752Z,1913.00
2023-04-12T06:03:50.556Z,1872.00
2023-04-12T06:04:51.876Z,1865.00
2023-04-12T06:05:50.501Z,1841.00
2023-04-12T06:06:50.847Z,1865.00
2023-04-12T06:07:50.509Z,1899.00
2023-04-12T06:08:50.450Z,1976.00
2023-04-12T06:09:50.718Z,2121.00
2023-04-12T06:10:50.505Z,2348.00
2023-04-12T06:11:50.453Z,2678.00
2023-04-12T06:12:50.434Z,3046.00
2023-04-12T06:13:50.423Z,3313.00
2023-04-12T06:14:50.334Z,3607.00
2023-04-12T06:15:50.404Z,3921.00
2023-04-12T06:16:50.458Z,4200.00
2023-04-12T06:17:50.344Z,4487.00
2023-04-12T06:18:50.309Z,4787.00
2023-04-12T06:19:50.371Z,5063.00
2023-04-12T06:20:50.268Z,5216.00
2023-04-12T06:21:50.288Z,5178.00
2023-04-12T06:22:50.282Z,5090.00
2023-04-12T06:23:50.390Z,4857.00
2023-04-12T06:24:50.332Z,4459.00
2023-04-12T06:25:50.239Z,4006.00
2023-04-12T06:26:50.253Z,3534.00
2023-04-12T06:27:50.206Z,3232.00
2023-04-12T06:28:50.289Z,3010.00
2023-04-12T06:29:50.133Z,2785.00
2023-04-12T06:30:50.197Z,2683.00
2023-04-12T06:31:50.205Z,2562.00
2023-04-12T06:32:50.212Z,2454.00
2023-04-12T06:33:50.161Z,2363.00
2023-04-12T06:34:50.452Z,2318.00
2023-04-12T06:35:50.117Z,2272.00
2023-04-12T06:36:50.134Z,2247.00
2023-04-12T06:37:50.053Z,2287.00
2023-04-12T06:38:50.122Z,2363.00
2023-04-12T06:39:50.048Z,2404.00
2023-04-12T06:40:50.055Z,2503.00
2023-04-12T06:41:50.034Z,2643.00
2023-04-12T06:42:50.006Z,2878.00
2023-04-12T06:43:49.946Z,3232.00
2023-04-12T06:44:49.987Z,3636.00
2023-04-12T06:45:50.238Z,4076.00
2023-04-12T06:46:50.027Z,4452.00
2023-04-12T06:47:49.917Z,4508.00
2023-04-12T06:48:49.941Z,4260.00
2023-04-12T06:49:49.885Z,4012.00
2023-04-12T06:50:49.911Z,3889.00
2023-04-12T06:51:49.910Z,3803.00
2023-04-12T06:52:49.910Z,3735.00
2023-04-12T06:53:50.116Z,3916.00
2023-04-12T06:54:49.848Z,4248.00
2023-04-12T06:55:49.807Z,4495.00
2023-04-12T06:56:49.831Z,4592.00
2023-04-12T06:57:49.778Z,4648.00
2023-04-12T06:58:49.917Z,4625.00
2023-04-12T06:59:49.766Z,4569.00
2023-04-12T07:00:49.780Z,4534.00
2023-04-12T07:01:49.762Z,4481.00
2023-04-12T07:02:49.914Z,4364.00
2023-04-12T07:03:49.749Z,4385.00
2023-04-12T07:04:49.730Z,4557.00
2023-04-12T07:05:49.705Z,4740.00
2023-04-12T07:06:49.697Z,4972.00
2023-04-12T07:07:49.633Z,5148.00
2023-04-12T07:08:49.714Z,5307.00
2023-04-12T07:09:49.630Z,5401.00
2023-04-12T07:10:49.685Z,5450.00
2023-04-12T07:11:49.628Z,5435.00
2023-04-12T07:12:49.640Z,5469.00
2023-04-12T07:13:49.616Z,5576.00
2023-04-12T07:14:49.574Z,5821.00
2023-04-12T07:15:49.532Z,6101.00
2023-04-12T07:16:49.686Z,6300.00
2023-04-12T07:17:49.710Z,6364.00
2023-04-12T07:18:49.548Z,6342.00
2023-04-12T07:19:49.476Z,6275.00
2023-04-12T07:20:49.523Z,6184.00
2023-04-12T07:21:49.463Z,5965.00
2023-04-12T07:22:49.552Z,5823.00
2023-04-12T07:23:49.453Z,5791.00
2023-04-12T07:24:49.437Z,5794.00
2023-04-12T07:25:49.429Z,5808.00
2023-04-12T07:26:49.422Z,5835.00
2023-04-12T07:27:51.606Z,6005.00
2023-04-12T07:28:49.435Z,6191.00
2023-04-12T07:29:49.339Z,6273.00
2023-04-12T07:30:49.386Z,6223.00
2023-04-12T07:31:49.337Z,6048.00
2023-04-12T07:32:49.414Z,5785.00
2023-04-12T07:33:49.375Z,5498.00
2023-04-12T07:34:49.461Z,5235.00
2023-04-12T07:35:49.310Z,5099.00
2023-04-12T07:36:49.312Z,5086.00
2023-04-12T07:37:49.242Z,4968.00
2023-04-12T07:38:49.299Z,4758.00
2023-04-12T07:39:49.294Z,4545.00
2023-04-12T07:40:50.299Z,4398.00
2023-04-12T07:41:49.214Z,4315.00
2023-04-12T07:42:49.206Z,4194.00
2023-04-12T07:43:49.193Z,4100.00
2023-04-12T07:44:49.203Z,4097.00
2023-04-12T07:45:49.210Z,4144.00
2023-04-12T07:46:49.276Z,4100.00
2023-04-12T07:47:49.207Z,3958.00
2023-04-12T07:48:49.112Z,3783.00
2023-04-12T07:49:49.082Z,3672.00
2023-04-12T07:50:49.156Z,3707.00
2023-04-12T07:51:49.093Z,3884.00
2023-04-12T07:52:49.107Z,4071.00
2023-04-12T07:53:49.047Z,4169.00
2023-04-12T07:54:49.030Z,4169.00
2023-04-12T07:55:49.028Z,3909.00
2023-04-12T07:56:49.047Z,3572.00
2023-04-12T07:57:48.970Z,3267.00
2023-04-12T07:58:49.058Z,3043.00
2023-04-12T07:59:48.984Z,2944.00
2023-04-12T08:00:48.994Z,2873.00
2023-04-12T08:01:49.334Z,2886.00
2023-04-12T08:02:49.060Z,3142.00
2023-04-12T08:03:49.038Z,3284.00
2023-04-12T08:04:48.989Z,3513.00
2023-04-12T08:05:48.936Z,3860.00
2023-04-12T08:06:48.874Z,4247.00
2023-04-12T08:07:48.843Z,4521.00
2023-04-12T08:08:48.918Z,4646.00
2023-04-12T08:09:48.819Z,4748.00
2023-04-12T08:10:49.552Z,4859.00
2023-04-12T08:11:48.800Z,4931.00
2023-04-12T08:12:48.918Z,5052.00
2023-04-12T08:13:48.812Z,5322.00
2023-04-12T08:14:48.782Z,5774.00
2023-04-12T08:15:48.781Z,6351.00
2023-04-12T08:16:48.811Z,6773.00
2023-04-12T08:17:48.768Z,6810.00
2023-04-12T08:18:48.821Z,7234.00
2023-04-12T08:19:48.710Z,7292.00
2023-04-12T08:20:48.694Z,7526.00
2023-04-12T08:21:48.682Z,7810.00
2023-04-12T08:22:48.735Z,8322.00
2023-04-12T08:23:48.689Z,8687.00
2023-04-12T08:24:50.508Z,8831.00
2023-04-12T08:25:48.637Z,8741.00
2023-04-12T08:26:48.622Z,8637.00
2023-04-12T08:27:48.588Z,8779.00
2023-04-12T08:28:48.741Z,8934.00
2023-04-12T08:29:48.559Z,9057.00
2023-04-12T08:30:48.595Z,9360.00
2023-04-12T08:31:48.616Z,10151.00
2023-04-12T08:32:48.626Z,10726.00
2023-04-12T08:33:48.516Z,10778.00
2023-04-12T08:34:48.631Z,10696.00
2023-04-12T08:35:48.508Z,10442.00
2023-04-12T08:36:48.518Z,9837.00
2023-04-12T08:37:48.490Z,9416.00
2023-04-12T08:38:48.489Z,8988.00
2023-04-12T08:39:48.428Z,8474.00
2023-04-12T08:40:48.503Z,8054.00
2023-04-12T08:41:48.418Z,7569.00
2023-04-12T08:42:48.405Z,7559.00
2023-04-12T08:43:48.380Z,7344.00
2023-04-12T08:44:48.439Z,7061.00
2023-04-12T08:45:48.340Z,6667.00
2023-04-12T08:46:48.449Z,6350.00
2023-04-12T08:47:48.338Z,6189.00
2023-04-12T08:48:48.373Z,6148.00
2023-04-12T08:49:48.315Z,5962.00
2023-04-12T08:50:50.492Z,5724.00
2023-04-12T08:51:48.266Z,5648.00
2023-04-12T08:52:48.417Z,5555.00
2023-04-12T08:53:48.274Z,5424.00
2023-04-12T08:54:48.275Z,4961.00
2023-04-12T08:55:48.230Z,4934.00
2023-04-12T08:56:49.226Z,4886.00
2023-04-12T08:57:48.180Z,6134.00
2023-04-12T08:58:48.349Z,6924.00
2023-04-12T08:59:48.176Z,6956.00
2023-04-12T09:00:48.173Z,7028.00
2023-04-12T09:01:48.216Z,6729.00
2023-04-12T09:02:48.294Z,6183.00
2023-04-12T09:03:48.246Z,5591.00
2023-04-12T09:04:48.245Z,5448.00
2023-04-12T09:05:48.090Z,5585.00
2023-04-12T09:06:48.149Z,5894.00
2023-04-12T09:07:48.068Z,6805.00
2023-04-12T09:08:48.063Z,7965.00
2023-04-12T09:09:48.035Z,8890.00
2023-04-12T09:10:48.093Z,9469.00
2023-04-12T09:11:48.016Z,9789.00
2023-04-12T09:12:48.010Z,10471.00
2023-04-12T09:13:48.340Z,11649.00
2023-04-12T09:14:47.993Z,11824.00
2023-04-12T09:15:47.961Z,11840.00
2023-04-12T09:16:52.331Z,11609.00
2023-04-12T09:17:47.988Z,11389.00
2023-04-12T09:18:48.010Z,10934.00
2023-04-12T09:19:47.914Z,10714.00
2023-04-12T09:20:47.907Z,10978.00
2023-04-12T09:21:47.882Z,10445.00
2023-04-12T09:22:47.904Z,9570.00
2023-04-12T09:23:47.859Z,9495.00
2023-04-12T09:24:47.913Z,9210.00
2023-04-12T09:25:47.841Z,8559.00
2023-04-12T09:26:47.835Z,7994.00
2023-04-12T09:27:47.787Z,7453.00
2023-04-12T09:28:47.852Z,7656.00
2023-04-12T09:29:47.771Z,7765.00
2023-04-12T09:30:47.792Z,7776.00
2023-04-12T09:31:47.809Z,8767.00
2023-04-12T09:32:47.774Z,9350.00
2023-04-12T09:33:47.724Z,9784.00
2023-04-12T09:34:47.766Z,10029.00
2023-04-12T09:35:47.902Z,9682.00
2023-04-12T09:36:47.733Z,8775.00
2023-04-12T09:37:47.639Z,8566.00
2023-04-12T09:38:47.686Z,9038.00
2023-04-12T09:39:47.669Z,9097.00
2023-04-12T09:40:47.658Z,9367.00
2023-04-12T09:41:47.635Z,9997.00
2023-04-12T09:42:47.612Z,10310.00
2023-04-12T09:43:47.576Z,10192.00
2023-04-12T09:44:47.639Z,10344.00
2023-04-12T09:45:47.540Z,9338.00
2023-04-12T09:46:48.361Z,8227.00
2023-04-12T09:47:47.561Z,7551.00
2023-04-12T09:48:47.529Z,7819.00
2023-04-12T09:49:47.507Z,8061.00
2023-04-12T09:50:47.507Z,7859.00
2023-04-12T09:51:47.453Z,7760.00
2023-04-12T09:52:47.557Z,7820.00
2023-04-12T09:53:47.461Z,7240.00
2023-04-12T09:54:47.472Z,6130.00
2023-04-12T09:55:47.466Z,5874.00
2023-04-12T09:56:47.412Z,6089.00
2023-04-12T09:57:47.414Z,5872.00
2023-04-12T09:58:47.456Z,6407.00
2023-04-12T09:59:47.382Z,7064.00
2023-04-12T10:00:47.431Z,7146.00
2023-04-12T10:01:47.423Z,6810.00
2023-04-12T10:02:47.829Z,5981.00
2023-04-12T10:03:47.461Z,7082.00
2023-04-12T10:04:47.586Z,8580.00
2023-04-12T10:05:47.292Z,8681.00
2023-04-12T10:06:47.333Z,8585.00
2023-04-12T10:07:47.261Z,7816.00
2023-04-12T10:08:47.245Z,7121.00
2023-04-12T10:09:47.268Z,6974.00
2023-04-12T10:10:47.246Z,6388.00
2023-04-12T10:11:47.187Z,6114.00
2023-04-12T10:12:47.375Z,5955.00
2023-04-12T10:13:47.211Z,6874.00
2023-04-12T10:14:47.212Z,6675.00
2023-04-12T10:15:47.176Z,6177.00
2023-04-12T10:16:47.410Z,5956.00
2023-04-12T10:17:47.200Z,5445.00
2023-04-12T10:18:47.528Z,4985.00
2023-04-12T10:19:47.118Z,4986.00
2023-04-12T10:20:47.117Z,4768.00
2023-04-12T10:21:47.064Z,5867.00
2023-04-12T10:22:47.104Z,7803.00
2023-04-12T10:23:47.054Z,8926.00
2023-04-12T10:24:47.462Z,9138.00
2023-04-12T10:25:47.029Z,6954.00
2023-04-12T10:26:47.041Z,6380.00
2023-04-12T10:27:47.037Z,6123.00
2023-04-12T10:28:47.013Z,6357.00
2023-04-12T10:29:46.948Z,5987.00
2023-04-12T10:30:46.985Z,6422.00
2023-04-12T10:31:47.003Z,6908.00
2023-04-12T10:32:46.983Z,7753.00
2023-04-12T10:33:46.930Z,7679.00
2023-04-12T10:34:46.939Z,7795.00
2023-04-12T10:35:46.907Z,8345.00
2023-04-12T10:36:46.941Z,9595.00
2023-04-12T10:37:46.862Z,9165.00
2023-04-12T10:38:46.950Z,8030.00
2023-04-12T10:39:46.882Z,9123.00
2023-04-12T10:40:46.878Z,9721.00
2023-04-12T10:41:46.811Z,10714.00
2023-04-12T10:42:46.815Z,10670.00
2023-04-12T10:43:46.780Z,8984.00
2023-04-12T10:44:46.796Z,8412.00
2023-04-12T10:45:46.784Z,8118.00
2023-04-12T10:46:46.825Z,8439.00
2023-04-12T10:47:46.738Z,7653.00
2023-04-12T10:48:46.716Z,7828.00
2023-04-12T10:49:46.721Z,8288.00
2023-04-12T10:50:46.734Z,9095.00
2023-04-12T10:51:46.698Z,10540.00
2023-04-12T10:52:46.756Z,10865.00
2023-04-12T10:53:46.676Z,9566.00
2023-04-12T10:54:46.602Z,8070.00
2023-04-12T10:55:46.646Z,7802.00
2023-04-12T10:56:46.603Z,8605.00
2023-04-12T10:57:46.599Z,8506.00
2023-04-12T10:58:46.684Z,7189.00
2023-04-12T10:59:47.875Z,6313.00
2023-04-12T11:00:46.576Z,5716.00
2023-04-12T11:01:46.726Z,6455.00
2023-04-12T11:02:46.754Z,7338.00
2023-04-12T11:03:47.642Z,7771.00
2023-04-12T11:04:46.522Z,7393.00
2023-04-12T11:05:46.523Z,6721.00
2023-04-12T11:06:46.446Z,7083.00
2023-04-12T11:07:46.494Z,7006.00
2023-04-12T11:08:46.455Z,6664.00
2023-04-12T11:09:46.443Z,6730.00
2023-04-12T11:10:46.467Z,7268.00
2023-04-12T11:11:46.487Z,8537.00
2023-04-12T11:12:46.401Z,8282.00
2023-04-12T11:13:46.386Z,7842.00
2023-04-12T11:14:46.322Z,7364.00
2023-04-12T11:15:46.338Z,7137.00
2023-04-12T11:16:46.471Z,7079.00
2023-04-12T11:17:46.430Z,6530.00
2023-04-12T11:18:46.274Z,6389.00
2023-04-12T11:19:46.292Z,6303.00
2023-04-12T11:20:46.289Z,6515.00
2023-04-12T11:21:46.298Z,6380.00
2023-04-12T11:22:46.289Z,5987.00
2023-04-12T11:23:46.296Z,5480.00
2023-04-12T11:24:46.190Z,5213.00
2023-04-12T11:25:46.303Z,4917.00
2023-04-12T11:26:46.157Z,4585.00
2023-04-12T11:27:46.173Z,4964.00
2023-04-12T11:28:46.180Z,5707.00
2023-04-12T11:29:46.154Z,6113.00
2023-04-12T11:30:46.165Z,6248.00
2023-04-12T11:31:46.175Z,6486.00
2023-04-12T11:32:46.106Z,6737.00
2023-04-12T11:33:46.088Z,6526.00
2023-04-12T11:34:46.219Z,6844.00
2023-04-12T11:35:46.088Z,6880.00
2023-04-12T11:36:46.028Z,6070.00
2023-04-12T11:37:46.082Z,5835.00
2023-04-12T11:38:46.108Z,5951.00
2023-04-12T11:39:46.038Z,5942.00
2023-04-12T11:40:46.023Z,6481.00
2023-04-12T11:41:45.993Z,6869.00
2023-04-12T11:42:45.983Z,7274.00
2023-04-12T11:43:46.015Z,8537.00
2023-04-12T11:45:46.016Z,10443.00
2023-04-12T11:46:45.954Z,10404.00
2023-04-12T11:47:45.981Z,10054.00
2023-04-12T11:48:45.896Z,10239.00
2023-04-12T11:49:45.877Z,10786.00
2023-04-12T11:50:48.461Z,12539.00
2023-04-12T11:51:49.504Z,13565.00
2023-04-12T11:52:45.808Z,13738.00
2023-04-12T11:53:45.851Z,13375.00
2023-04-12T11:54:45.788Z,12815.00
2023-04-12T11:55:45.795Z,12171.00
2023-04-12T11:56:45.808Z,12366.00
2023-04-12T11:57:45.806Z,13116.00
2023-04-12T11:58:45.770Z,13157.00
2023-04-12T11:59:45.771Z,12876.00
2023-04-12T12:00:45.703Z,12289.00
2023-04-12T12:01:45.774Z,12072.00
2023-04-12T12:02:55.949Z,12774.00
2023-04-12T12:03:47.076Z,13809.00
2023-04-12T12:04:45.872Z,14630.00
2023-04-12T12:05:45.809Z,14315.00
2023-04-12T12:06:45.873Z,13212.00
2023-04-12T12:07:45.637Z,12960.00
2023-04-12T12:08:45.630Z,13814.00
2023-04-12T12:09:45.664Z,13814.00
2023-04-12T12:11:03.944Z,13606.00
2023-04-12T12:11:46.617Z,14579.00
2023-04-12T12:12:45.556Z,14816.00
2023-04-12T12:13:45.583Z,15497.00
2023-04-12T12:14:45.517Z,15816.00
2023-04-12T12:15:45.684Z,15157.00
2023-04-12T12:16:45.519Z,14428.00
2023-04-12T12:17:45.519Z,13755.00
2023-04-12T12:18:45.512Z,13297.00
2023-04-12T12:19:45.507Z,12412.00
2023-04-12T12:20:45.470Z,11287.00
2023-04-12T12:21:45.572Z,10640.00
2023-04-12T12:22:45.447Z,9739.00
2023-04-12T12:23:45.444Z,8767.00
2023-04-12T12:24:45.378Z,7939.00
2023-04-12T12:25:45.453Z,7750.00
2023-04-12T12:26:45.361Z,8094.00
2023-04-12T12:27:45.515Z,8946.00
2023-04-12T12:28:45.353Z,9815.00
2023-04-12T12:29:45.341Z,10317.00